Time;durP1;ratioP1;P1;durP2;ratioP2;P2;SDS_P1;SDS_P2;PMS_P1;PMS_P2;Temp;Humidity;BMP_temperature;BMP_pressure;BME280_temperature;BME280_humidity;BME280_pressure;Samples;Min_cycle;Max_cycle;Signal;HPM_P1;HPM_P2
2022/10/24 00:02:03;;;;;;;2.47;1.93;;;22.60;99.90;;;;;;5037415;28;20485;-58
2022/10/24 00:04:31;;;;;;;2.10;1.90;;;22.60;99.90;;;;;;5041724;28;20462;-56
2022/10/24 00:06:57;;;;;;;3.40;1.73;;;22.60;99.90;;;;;;5045996;28;20457;-49
2022/10/24 00:09:24;;;;;;;2.50;1.83;;;22.60;99.90;;;;;;5047815;28;20980;-58
2022/10/24 00:11:51;;;;;;;2.67;1.60;;;22.50;99.90;;;;;;5039706;28;20477;-57
2022/10/24 00:14:18;;;;;;;3.50;1.60;;;22.50;99.90;;;;;;5046242;28;20465;-58
2022/10/24 00:16:44;;;;;;;2.87;2.23;;;22.50;99.90;;;;;;5042817;28;20476;-54
2022/10/24 00:19:11;;;;;;;2.33;1.40;;;22.50;99.90;;;;;;5039992;28;20459;-48
2022/10/24 00:21:39;;;;;;;3.93;2.13;;;22.40;99.90;;;;;;5044171;28;20476;-52
2022/10/24 00:24:06;;;;;;;1.90;1.70;;;22.40;99.90;;;;;;5035366;28;20469;-52
2022/10/24 00:26:33;;;;;;;2.13;1.60;;;22.40;99.90;;;;;;5047768;28;20465;-58
2022/10/24 00:29:01;;;;;;;2.57;2.13;;;22.40;99.90;;;;;;5040815;28;20820;-56
2022/10/24 00:31:28;;;;;;;2.57;1.60;;;22.40;99.90;;;;;;5034807;28;20465;-58
2022/10/24 00:33:55;;;;;;;3.57;2.83;;;22.40;99.90;;;;;;5040367;28;20454;-53
2022/10/24 00:36:23;;;;;;;2.17;1.97;;;22.30;99.90;;;;;;5044422;28;20956;-58
2022/10/24 00:38:52;;;;;;;2.23;1.73;;;22.40;99.90;;;;;;5049558;28;20477;-52
2022/10/24 00:41:21;;;;;;;2.83;1.83;;;22.30;99.90;;;;;;5048972;28;20457;-55
2022/10/24 00:43:48;;;;;;;2.17;1.77;;;22.30;99.90;;;;;;5050179;28;20517;-54
2022/10/24 00:46:16;;;;;;;3.17;2.00;;;22.30;99.90;;;;;;5041237;28;20462;-55
2022/10/24 00:48:46;;;;;;;2.93;1.73;;;22.30;99.90;;;;;;5047406;28;20480;-54
2022/10/24 00:51:20;;;;;;;2.67;2.07;;;22.20;99.90;;;;;;5037986;28;20961;-56
2022/10/24 00:53:49;;;;;;;2.30;2.10;;;22.20;99.90;;;;;;5039842;28;20454;-54
2022/10/24 00:56:21;;;;;;;2.00;1.43;;;22.20;99.90;;;;;;5041911;28;20467;-57
2022/10/24 00:58:49;;;;;;;2.73;1.90;;;22.20;99.90;;;;;;5049568;28;20481;-58
2022/10/24 01:01:16;;;;;;;2.40;1.67;;;22.20;99.90;;;;;;5035040;28;20455;-57
2022/10/24 01:03:43;;;;;;;1.93;1.50;;;22.20;99.90;;;;;;5051685;28;20470;-54
2022/10/24 01:06:32;;;;;;;1.70;1.60;;;22.20;99.90;;;;;;5044377;28;20532;-56
2022/10/24 01:09:08;;;;;;;2.60;1.73;;;22.20;99.90;;;;;;5040351;28;20466;-57
2022/10/24 01:11:50;;;;;;;1.63;1.40;;;22.20;99.90;;;;;;5050478;28;20468;-54
2022/10/24 01:14:26;;;;;;;4.30;1.80;;;22.20;99.90;;;;;;5047784;28;20453;-57
2022/10/24 01:17:01;;;;;;;1.90;1.50;;;22.10;99.90;;;;;;5043176;28;20930;-57
2022/10/24 01:19:43;;;;;;;1.70;1.60;;;22.10;99.90;;;;;;5046618;28;20457;-56
2022/10/24 01:22:17;;;;;;;1.90;1.70;;;22.10;99.90;;;;;;5042850;28;20478;-58
2022/10/24 01:25:00;;;;;;;2.50;1.80;;;22.10;99.90;;;;;;5045346;28;20453;-53
2022/10/24 01:27:48;;;;;;;2.80;1.80;;;22.10;99.90;;;;;;5042386;28;20457;-57
2022/10/24 01:30:18;;;;;;;1.70;1.40;;;22.10;99.90;;;;;;5037345;28;20462;-55
2022/10/24 01:32:51;;;;;;;2.27;2.07;;;22.00;99.90;;;;;;5040059;28;20462;-55
2022/10/24 01:35:29;;;;;;;3.63;1.90;;;22.00;99.90;;;;;;5035274;28;20461;-56
2022/10/24 01:38:02;;;;;;;2.03;1.83;;;22.00;99.90;;;;;;5043935;28;20604;-56
2022/10/24 01:40:33;;;;;;;2.00;1.80;;;22.00;99.90;;;;;;5043607;28;20466;-57
2022/10/24 01:43:05;;;;;;;1.70;1.40;;;22.00;99.90;;;;;;5045819;28;20485;-56
2022/10/24 01:45:36;;;;;;;2.40;2.20;;;22.00;99.90;;;;;;5042345;28;20461;-55
2022/10/24 01:48:07;;;;;;;2.17;1.97;;;21.90;99.90;;;;;;5039772;28;20453;-57
2022/10/24 01:50:36;;;;;;;1.70;1.60;;;21.90;99.90;;;;;;5044893;28;20457;-53
2022/10/24 01:53:03;;;;;;;2.17;1.90;;;21.90;99.90;;;;;;5048001;28;20472;-54
2022/10/24 01:55:32;;;;;;;1.37;1.27;;;21.90;99.90;;;;;;5046914;28;20461;-54
2022/10/24 01:57:59;;;;;;;2.00;1.20;;;21.90;99.90;;;;;;5042190;28;20458;-58
2022/10/24 02:00:25;;;;;;;1.90;1.60;;;21.90;99.90;;;;;;5043206;28;21081;-57
2022/10/24 02:02:57;;;;;;;1.50;1.30;;;21.80;99.90;;;;;;5049861;28;20485;-55
2022/10/24 02:05:28;;;;;;;1.30;1.20;;;21.80;99.90;;;;;;5042003;28;20461;-51
2022/10/24 02:07:58;;;;;;;2.20;1.53;;;21.80;99.90;;;;;;5044525;28;20461;-57
2022/10/24 02:10:28;;;;;;;2.07;1.83;;;21.80;99.90;;;;;;5042065;28;20971;-57
2022/10/24 02:12:59;;;;;;;2.37;1.40;;;21.80;99.90;;;;;;5042101;28;20883;-57
2022/10/24 02:15:29;;;;;;;2.13;1.93;;;21.80;99.90;;;;;;5037108;28;20466;-56
2022/10/24 02:17:57;;;;;;;1.50;1.10;;;21.70;99.90;;;;;;5044666;28;20485;-57
2022/10/24 02:20:28;;;;;;;1.87;1.67;;;21.80;99.90;;;;;;5043894;28;20461;-56
2022/10/24 02:23:00;;;;;;;2.00;1.63;;;21.70;99.90;;;;;;5045526;28;20614;-57
2022/10/24 02:25:31;;;;;;;2.20;1.63;;;21.70;99.90;;;;;;5042806;28;20849;-57
2022/10/24 02:28:04;;;;;;;1.60;1.30;;;21.70;99.90;;;;;;5047136;28;20462;-57
2022/10/24 02:30:35;;;;;;;1.47;1.37;;;21.70;99.90;;;;;;5042101;28;21129;-57
2022/10/24 02:33:04;;;;;;;1.50;1.30;;;21.70;99.90;;;;;;5041862;28;20468;-57
2022/10/24 02:35:34;;;;;;;1.93;1.60;;;21.60;99.90;;;;;;5038552;28;21082;-55
2022/10/24 02:38:06;;;;;;;2.00;1.60;;;21.60;99.90;;;;;;5043582;28;20457;-55
2022/10/24 02:40:32;;;;;;;2.27;1.40;;;21.60;99.90;;;;;;5045759;28;20472;-53
2022/10/24 02:43:01;;;;;;;1.93;1.47;;;21.60;99.90;;;;;;5039689;28;20608;-56
2022/10/24 02:45:29;;;;;;;1.60;1.50;;;21.60;99.90;;;;;;5039463;28;20994;-52
2022/10/24 02:48:01;;;;;;;1.60;1.50;;;21.60;99.90;;;;;;5039182;28;20461;-56
2022/10/24 02:50:31;;;;;;;2.80;1.73;;;21.60;99.90;;;;;;5045309;28;20951;-57
2022/10/24 02:52:58;;;;;;;1.90;1.60;;;21.60;99.90;;;;;;5039607;28;20458;-57
2022/10/24 02:55:25;;;;;;;2.43;1.47;;;21.50;99.90;;;;;;5044760;28;20458;-55
2022/10/24 02:57:51;;;;;;;1.70;1.50;;;21.50;99.90;;;;;;5048817;28;20434;-58
2022/10/24 03:00:18;;;;;;;1.80;1.60;;;21.50;99.90;;;;;;5030466;28;20469;-56
2022/10/24 03:02:45;;;;;;;2.30;1.73;;;21.50;99.90;;;;;;5048544;28;20461;-56
2022/10/24 03:05:12;;;;;;;1.50;1.37;;;21.40;99.90;;;;;;5035874;28;20455;-51
2022/10/24 03:07:40;;;;;;;1.70;1.50;;;21.40;99.90;;;;;;5036220;28;20462;-57
2022/10/24 03:10:07;;;;;;;1.63;1.53;;;21.40;99.90;;;;;;5038811;28;20462;-53
2022/10/24 03:12:34;;;;;;;2.27;1.70;;;21.40;99.90;;;;;;5038924;28;20465;-56
2022/10/24 03:15:00;;;;;;;1.67;1.50;;;21.40;99.90;;;;;;5034435;28;20467;-58
2022/10/24 03:17:27;;;;;;;1.73;1.30;;;21.40;99.90;;;;;;5041331;28;20488;-55
2022/10/24 03:19:54;;;;;;;1.47;1.30;;;21.40;99.90;;;;;;5048270;28;20194;-57
2022/10/24 03:22:20;;;;;;;1.40;1.17;;;21.40;99.90;;;;;;5035042;28;20458;-57
2022/10/24 03:24:49;;;;;;;2.33;1.57;;;21.40;99.90;;;;;;5047462;28;20468;-54
2022/10/24 03:27:15;;;;;;;1.65;1.55;;;21.30;99.90;;;;;;5041510;28;20465;-56
2022/10/24 03:29:42;;;;;;;1.63;1.47;;;21.30;99.90;;;;;;5039412;28;20658;-54
2022/10/24 03:32:09;;;;;;;3.80;1.47;;;21.30;99.90;;;;;;5040535;28;20521;-58
2022/10/24 03:34:36;;;;;;;1.57;1.47;;;21.30;99.90;;;;;;5032346;28;20474;-48
2022/10/24 03:37:03;;;;;;;2.22;1.75;;;21.30;99.90;;;;;;5043189;28;20805;-52
2022/10/24 03:39:30;;;;;;;1.63;1.40;;;21.30;99.90;;;;;;5035642;28;20196;-52
2022/10/24 03:41:58;;;;;;;1.60;1.40;;;21.20;99.90;;;;;;5036260;28;20476;-57
2022/10/24 03:44:25;;;;;;;2.55;1.33;;;21.40;99.90;;;;;;5047558;28;20560;-55
2022/10/24 03:46:51;;;;;;;1.75;1.23;;;21.80;99.90;;;;;;5040833;28;20195;-53
2022/10/24 03:49:18;;;;;;;2.27;1.93;;;22.10;99.90;;;;;;5036787;28;20203;-57
2022/10/24 03:51:45;;;;;;;1.77;1.30;;;22.20;99.90;;;;;;5042425;28;20480;-53
2022/10/24 03:54:14;;;;;;;1.67;1.50;;;22.20;99.90;;;;;;5037797;28;20482;-50
2022/10/24 03:56:41;;;;;;;1.40;1.20;;;22.20;99.90;;;;;;5039960;28;20527;-50
2022/10/24 03:59:09;;;;;;;1.53;1.30;;;22.20;99.90;;;;;;5047060;28;20453;-58
2022/10/24 04:01:35;;;;;;;1.40;1.30;;;22.10;99.90;;;;;;5041812;28;20457;-56
2022/10/24 04:04:02;;;;;;;1.50;1.30;;;22.00;99.90;;;;;;5045670;28;20481;-56
2022/10/24 04:06:29;;;;;;;1.50;1.30;;;22.00;99.90;;;;;;5049494;28;20466;-48
2022/10/24 04:08:56;;;;;;;2.30;1.40;;;22.10;99.90;;;;;;5045583;28;20955;-50
2022/10/24 04:11:22;;;;;;;1.70;1.40;;;22.30;99.90;;;;;;5046950;28;20454;-56
2022/10/24 04:13:51;;;;;;;1.30;1.00;;;22.60;99.90;;;;;;5043618;28;20985;-53
2022/10/24 04:16:19;;;;;;;1.10;0.97;;;22.70;99.90;;;;;;5041667;28;20569;-59
2022/10/24 04:18:46;;;;;;;1.40;1.07;;;22.80;99.90;;;;;;5050414;28;20462;-58
2022/10/24 04:21:13;;;;;;;1.63;1.47;;;23.00;99.90;;;;;;5038359;28;20461;-57
2022/10/24 04:23:41;;;;;;;1.77;1.50;;;23.10;99.90;;;;;;5045603;28;20476;-58
2022/10/24 04:26:08;;;;;;;1.63;1.10;;;23.20;99.90;;;;;;5039631;28;20632;-57
2022/10/24 04:28:35;;;;;;;1.27;0.97;;;23.20;99.90;;;;;;5049386;28;20465;-57
2022/10/24 04:31:02;;;;;;;1.23;1.13;;;23.30;99.90;;;;;;5038104;28;20477;-51
2022/10/24 04:33:30;;;;;;;1.83;1.33;;;23.20;99.90;;;;;;5044620;28;20462;-57
2022/10/24 04:35:57;;;;;;;1.30;1.10;;;23.20;99.90;;;;;;5046858;28;20489;-56
2022/10/24 04:38:23;;;;;;;1.30;1.10;;;23.20;99.90;;;;;;5052155;28;20441;-58
2022/10/24 04:40:52;;;;;;;1.93;1.50;;;23.10;99.90;;;;;;5040680;28;20692;-52
2022/10/24 04:43:19;;;;;;;1.60;1.40;;;23.00;99.90;;;;;;5041716;28;20476;-54
2022/10/24 04:45:46;;;;;;;1.60;1.40;;;23.00;99.90;;;;;;5043469;28;21616;-58
2022/10/24 04:48:12;;;;;;;1.77;1.27;;;22.90;99.90;;;;;;5042296;28;20899;-54
2022/10/24 04:50:42;;;;;;;1.63;1.30;;;22.90;99.90;;;;;;5047983;28;20912;-55
2022/10/24 04:53:08;;;;;;;1.50;1.30;;;22.80;99.90;;;;;;5051073;28;20458;-51
2022/10/24 04:55:35;;;;;;;1.20;1.00;;;22.80;99.90;;;;;;5048346;28;20461;-57
2022/10/24 04:58:02;;;;;;;1.80;1.40;;;22.70;99.90;;;;;;5031397;28;20467;-58
2022/10/24 05:00:29;;;;;;;1.20;1.03;;;22.70;99.90;;;;;;5047613;28;20813;-58
2022/10/24 05:02:57;;;;;;;1.20;1.00;;;22.70;99.90;;;;;;5045872;28;20469;-59
2022/10/24 05:05:23;;;;;;;1.10;1.00;;;22.60;99.90;;;;;;5040510;28;20453;-49
2022/10/24 05:07:51;;;;;;;2.53;1.20;;;22.50;99.90;;;;;;5046562;28;20453;-58
2022/10/24 05:10:18;;;;;;;1.37;1.13;;;22.50;99.90;;;;;;5046258;28;20480;-58
2022/10/24 05:12:45;;;;;;;1.50;1.40;;;22.40;99.90;;;;;;5046723;28;20465;-54
2022/10/24 05:15:13;;;;;;;1.40;1.23;;;22.40;99.90;;;;;;5043085;28;20457;-52
2022/10/24 05:17:39;;;;;;;1.10;0.93;;;22.40;99.90;;;;;;5041508;28;21026;-58
2022/10/24 05:20:07;;;;;;;1.27;1.07;;;22.40;99.90;;;;;;5043516;28;20471;-56
2022/10/24 05:22:34;;;;;;;1.23;1.00;;;22.40;99.90;;;;;;5047937;28;20457;-57
2022/10/24 05:25:02;;;;;;;1.10;1.00;;;22.30;99.90;;;;;;5044849;28;20492;-55
2022/10/24 05:27:28;;;;;;;1.40;1.20;;;22.40;99.90;;;;;;5046131;28;20956;-58
2022/10/24 05:29:55;;;;;;;2.10;1.70;;;22.30;99.90;;;;;;5047643;28;20457;-52
2022/10/24 05:32:23;;;;;;;1.30;1.03;;;22.30;99.90;;;;;;5040626;28;20461;-55
2022/10/24 05:34:50;;;;;;;1.23;1.00;;;22.30;99.90;;;;;;5041072;28;20449;-57
2022/10/24 05:37:17;;;;;;;1.30;1.20;;;22.40;99.90;;;;;;5042702;28;20465;-58
2022/10/24 05:39:44;;;;;;;1.30;1.20;;;22.40;99.90;;;;;;5041526;28;20461;-54
2022/10/24 05:42:12;;;;;;;1.40;1.10;;;22.50;99.90;;;;;;5047261;28;20458;-58
2022/10/24 05:44:39;;;;;;;1.50;1.10;;;22.50;99.90;;;;;;5039992;28;20484;-53
2022/10/24 05:47:06;;;;;;;1.90;1.27;;;22.60;99.90;;;;;;5038239;28;20496;-49
2022/10/24 05:49:33;;;;;;;1.70;1.20;;;22.60;99.90;;;;;;5041935;28;20456;-54
2022/10/24 05:52:00;;;;;;;1.10;0.93;;;22.70;99.90;;;;;;5045609;28;20465;-48
2022/10/24 05:54:26;;;;;;;1.47;1.00;;;22.70;99.90;;;;;;5046173;28;20829;-53
2022/10/24 05:56:53;;;;;;;1.20;1.00;;;22.70;99.90;;;;;;5046552;28;20469;-50
2022/10/24 05:59:21;;;;;;;1.47;1.13;;;22.80;99.90;;;;;;5038593;28;20462;-46
2022/10/24 06:01:48;;;;;;;1.70;1.30;;;22.80;99.90;;;;;;5041374;28;20458;-50
2022/10/24 06:04:14;;;;;;;1.33;1.10;;;22.90;99.90;;;;;;5042900;28;20485;-50
2022/10/24 06:06:42;;;;;;;1.67;0.93;;;22.90;99.90;;;;;;5044556;28;20458;-51
2022/10/24 06:09:09;;;;;;;1.40;1.30;;;23.00;99.90;;;;;;5047329;28;20815;-52
2022/10/24 06:11:36;;;;;;;1.63;0.90;;;23.00;99.90;;;;;;5038524;28;20467;-50
2022/10/24 06:14:04;;;;;;;1.20;1.07;;;23.00;99.90;;;;;;5039878;28;20467;-50
2022/10/24 06:16:33;;;;;;;1.20;0.97;;;23.10;99.90;;;;;;5046919;28;20477;-51
2022/10/24 06:19:00;;;;;;;1.60;1.10;;;23.10;99.90;;;;;;5044385;28;20453;-51
2022/10/24 06:21:27;;;;;;;1.73;1.30;;;23.10;99.90;;;;;;5042304;28;20968;-49
2022/10/24 06:23:54;;;;;;;1.50;1.20;;;23.10;99.90;;;;;;5041037;28;20884;-51
2022/10/24 06:26:21;;;;;;;1.40;1.10;;;23.10;99.90;;;;;;5043787;28;20489;-52
2022/10/24 06:28:47;;;;;;;1.20;0.90;;;23.10;99.90;;;;;;5039131;28;20458;-50
2022/10/24 06:31:14;;;;;;;1.50;1.20;;;23.10;99.90;;;;;;5045379;28;20465;-49
2022/10/24 06:33:42;;;;;;;1.00;0.90;;;23.00;99.90;;;;;;5045631;28;20458;-49
2022/10/24 06:36:11;;;;;;;1.30;1.00;;;23.00;99.90;;;;;;5045280;28;20462;-49
2022/10/24 06:38:38;;;;;;;1.23;1.13;;;23.00;99.90;;;;;;5047397;28;20829;-50
2022/10/24 06:41:09;;;;;;;1.40;1.17;;;23.00;99.90;;;;;;5039440;28;20469;-48
2022/10/24 06:43:37;;;;;;;1.10;1.00;;;23.00;99.90;;;;;;5041816;28;20872;-50
2022/10/24 06:46:06;;;;;;;1.33;1.10;;;23.00;99.90;;;;;;5035263;28;20944;-52
2022/10/24 06:48:33;;;;;;;1.33;1.23;;;23.00;99.90;;;;;;5048827;28;20449;-50
2022/10/24 06:51:01;;;;;;;1.00;0.83;;;23.00;99.90;;;;;;5047854;28;20527;-52
2022/10/24 06:53:28;;;;;;;1.23;1.03;;;23.00;99.90;;;;;;5042927;28;20469;-49
2022/10/24 06:55:55;;;;;;;1.57;1.23;;;22.90;99.90;;;;;;5038700;28;20509;-50
2022/10/24 06:58:21;;;;;;;1.20;1.00;;;23.00;99.90;;;;;;5039242;28;20465;-51
2022/10/24 07:00:48;;;;;;;1.60;1.50;;;22.90;99.90;;;;;;5035993;28;20466;-50
2022/10/24 07:03:15;;;;;;;2.27;1.10;;;22.90;99.90;;;;;;5039556;28;20470;-49
2022/10/24 07:05:42;;;;;;;2.00;1.40;;;22.90;99.90;;;;;;5047082;28;20485;-52
2022/10/24 07:08:10;;;;;;;1.60;1.20;;;22.90;99.90;;;;;;5042006;28;20457;-48
2022/10/24 07:10:37;;;;;;;2.70;1.13;;;22.90;99.90;;;;;;5039343;28;20554;-49
2022/10/24 07:13:04;;;;;;;1.40;1.10;;;22.90;99.90;;;;;;5048352;28;20461;-53
2022/10/24 07:15:30;;;;;;;1.23;1.07;;;22.90;99.90;;;;;;5042012;28;20461;-51
2022/10/24 07:17:57;;;;;;;1.30;1.00;;;22.90;99.90;;;;;;5042637;28;20489;-52
2022/10/24 07:20:24;;;;;;;1.70;1.13;;;22.90;99.90;;;;;;5039000;28;20457;-50
2022/10/24 07:22:51;;;;;;;1.40;1.00;;;22.90;99.90;;;;;;5032084;28;20458;-53
2022/10/24 07:25:19;;;;;;;1.47;0.97;;;22.90;99.90;;;;;;5039881;28;20484;-51
2022/10/24 07:27:45;;;;;;;1.57;1.47;;;22.90;99.90;;;;;;5047083;28;20488;-51
2022/10/24 07:30:17;;;;;;;1.50;1.00;;;22.90;99.90;;;;;;5043028;28;20950;-50
2022/10/24 07:32:43;;;;;;;1.30;1.10;;;22.80;99.90;;;;;;5044045;28;20497;-50
2022/10/24 07:35:12;;;;;;;2.13;1.10;;;22.80;99.90;;;;;;5045265;28;20824;-50
2022/10/24 07:37:38;;;;;;;1.67;1.20;;;22.80;99.90;;;;;;5041934;28;20540;-50
2022/10/24 07:40:06;;;;;;;1.70;1.20;;;22.80;99.90;;;;;;5045106;28;20473;-50
2022/10/24 07:42:34;;;;;;;2.17;1.20;;;22.80;99.90;;;;;;5051171;28;20457;-51
2022/10/24 07:45:01;;;;;;;1.10;1.00;;;22.80;99.90;;;;;;5046438;28;20549;-48
2022/10/24 07:47:28;;;;;;;1.10;0.80;;;22.90;99.90;;;;;;5035800;28;20457;-49
2022/10/24 07:49:55;;;;;;;1.43;1.30;;;22.90;99.90;;;;;;5037709;28;20458;-50
2022/10/24 07:52:21;;;;;;;1.27;1.07;;;23.00;99.90;;;;;;5045831;28;20442;-49
2022/10/24 07:54:48;;;;;;;1.23;0.97;;;23.00;99.90;;;;;;5036624;28;20466;-53
2022/10/24 07:57:15;;;;;;;1.30;0.97;;;23.00;99.90;;;;;;5045123;28;20485;-49
2022/10/24 07:59:43;;;;;;;1.23;1.00;;;23.10;99.90;;;;;;5045896;28;20563;-49
2022/10/24 08:02:11;;;;;;;1.47;1.23;;;23.10;99.90;;;;;;5041220;28;20508;-48
2022/10/24 08:04:38;;;;;;;1.90;1.20;;;23.20;99.90;;;;;;5038488;28;20481;-51
2022/10/24 08:07:07;;;;;;;1.20;1.10;;;23.20;99.90;;;;;;5042790;28;20462;-47
2022/10/24 08:09:37;;;;;;;1.57;1.10;;;23.20;99.90;;;;;;5045787;28;20458;-50
2022/10/24 08:12:04;;;;;;;5.93;1.40;;;23.20;99.90;;;;;;5045719;28;20867;-49
2022/10/24 08:14:31;;;;;;;4.70;1.43;;;23.20;99.90;;;;;;5043655;28;20844;-52
2022/10/24 08:16:59;;;;;;;7.57;1.13;;;23.30;99.90;;;;;;5043497;28;20497;-48
2022/10/24 08:19:26;;;;;;;6.70;1.30;;;23.20;99.90;;;;;;5043766;28;20469;-47
2022/10/24 08:21:52;;;;;;;1.50;1.03;;;23.20;99.90;;;;;;5049608;28;20466;-47
2022/10/24 08:24:19;;;;;;;3.00;1.33;;;23.10;99.90;;;;;;5044274;28;20478;-49
2022/10/24 08:26:46;;;;;;;3.10;1.83;;;23.10;99.90;;;;;;5038654;28;20481;-51
2022/10/24 08:29:13;;;;;;;2.50;1.30;;;23.10;99.90;;;;;;5043184;28;20465;-51
2022/10/24 08:31:40;;;;;;;4.70;1.30;;;23.10;99.90;;;;;;5049195;28;20465;-47
2022/10/24 08:34:12;;;;;;;3.77;1.50;;;23.00;99.90;;;;;;5041906;28;20520;-49
2022/10/24 08:36:38;;;;;;;3.20;1.20;;;23.00;99.90;;;;;;5043669;28;20450;-49
2022/10/24 08:39:05;;;;;;;1.63;1.23;;;23.00;99.90;;;;;;5037118;28;20462;-49
2022/10/24 08:41:37;;;;;;;2.83;1.37;;;23.00;99.90;;;;;;5047822;28;20462;-51
2022/10/24 08:44:14;;;;;;;2.50;1.20;;;23.00;99.90;;;;;;5048422;28;20863;-51
2022/10/24 08:46:49;;;;;;;1.43;1.00;;;23.00;99.90;;;;;;5042088;28;20457;-52
2022/10/24 08:49:26;;;;;;;2.10;1.47;;;23.10;99.90;;;;;;5044555;28;20462;-49
2022/10/24 08:51:56;;;;;;;2.23;1.20;;;23.10;99.90;;;;;;5047823;28;20869;-50
2022/10/24 08:54:28;;;;;;;1.70;1.30;;;23.10;99.90;;;;;;5047067;28;20548;-48
2022/10/24 08:56:56;;;;;;;1.77;1.20;;;23.10;99.90;;;;;;5052629;28;20975;-48
2022/10/24 08:59:26;;;;;;;2.13;1.90;;;23.20;99.90;;;;;;5050692;28;20442;-49
2022/10/24 09:01:57;;;;;;;1.97;1.40;;;23.20;99.90;;;;;;5049829;28;20471;-48
2022/10/24 09:04:29;;;;;;;1.93;1.13;;;23.20;99.90;;;;;;5048743;28;20578;-53
2022/10/24 09:06:55;;;;;;;1.93;1.20;;;23.20;99.90;;;;;;5042482;28;20446;-50
2022/10/24 09:09:28;;;;;;;1.57;1.07;;;23.20;99.90;;;;;;5052221;28;20458;-53
2022/10/24 09:11:59;;;;;;;2.20;1.30;;;23.30;99.90;;;;;;5052435;28;20437;-49
2022/10/24 09:14:28;;;;;;;1.53;1.20;;;23.30;99.90;;;;;;5041274;28;20884;-49
2022/10/24 09:16:58;;;;;;;1.47;1.00;;;23.30;99.90;;;;;;5049849;28;20465;-47
2022/10/24 09:19:29;;;;;;;1.50;1.23;;;23.30;99.90;;;;;;5039333;28;20949;-50
2022/10/24 09:21:58;;;;;;;2.83;1.47;;;23.30;99.90;;;;;;5042706;28;20817;-49
2022/10/24 09:24:34;;;;;;;1.87;1.13;;;23.30;99.90;;;;;;5036066;28;20461;-51
2022/10/24 09:27:03;;;;;;;9.03;2.17;;;23.30;99.90;;;;;;5044518;28;20909;-51
2022/10/24 09:29:32;;;;;;;1.73;1.20;;;23.30;99.90;;;;;;5048879;28;20536;-50
2022/10/24 09:31:59;;;;;;;1.80;1.23;;;23.30;99.90;;;;;;5035152;28;20980;-52
2022/10/24 09:34:27;;;;;;;1.57;1.20;;;23.30;99.90;;;;;;5037920;28;20453;-53
2022/10/24 09:36:54;;;;;;;1.97;1.07;;;23.20;99.90;;;;;;5041189;28;20465;-58
2022/10/24 09:39:27;;;;;;;1.60;1.10;;;23.20;99.90;;;;;;5037758;28;20972;-57
2022/10/24 09:41:54;;;;;;;1.93;1.00;;;23.20;99.90;;;;;;5049238;28;20477;-56
2022/10/24 09:44:42;;;;;;;3.27;1.23;;;23.20;99.90;;;;;;5048145;28;20847;-59
2022/10/24 09:47:24;;;;;;;2.10;1.00;;;23.20;99.90;;;;;;5044341;28;20500;-61
2022/10/24 09:49:53;;;;;;;1.60;1.07;;;23.20;99.90;;;;;;5037991;28;20473;-61
2022/10/24 09:52:21;;;;;;;2.63;1.03;;;23.20;99.90;;;;;;5042319;28;20455;-60
2022/10/24 09:55:05;;;;;;;1.93;1.20;;;23.20;99.90;;;;;;5040197;28;20474;-54
2022/10/24 09:57:39;;;;;;;1.60;1.10;;;23.20;99.90;;;;;;5045311;28;20510;-56
2022/10/24 10:00:19;;;;;;;2.13;1.20;;;23.20;99.90;;;;;;5051542;28;20465;-57
2022/10/24 10:02:57;;;;;;;1.67;1.40;;;23.20;99.90;;;;;;5038251;28;20544;-52
2022/10/24 10:05:25;;;;;;;1.70;0.97;;;23.20;99.90;;;;;;5041343;28;20473;-55
2022/10/24 10:07:52;;;;;;;1.10;0.87;;;23.20;99.90;;;;;;5051010;28;20464;-54
2022/10/24 10:10:31;;;;;;;2.10;1.20;;;23.20;99.90;;;;;;5046795;28;20532;-57
2022/10/24 10:13:06;;;;;;;1.30;0.90;;;23.20;99.90;;;;;;5038414;28;20477;-54
2022/10/24 10:15:36;;;;;;;1.90;0.90;;;23.20;99.90;;;;;;5037472;28;20487;-52
2022/10/24 10:18:06;;;;;;;1.23;0.97;;;23.20;99.90;;;;;;5050334;28;20469;-55
2022/10/24 10:20:38;;;;;;;4.43;1.73;;;23.20;99.90;;;;;;5036166;28;20457;-35
2022/10/24 10:23:25;;;;;;;3.50;1.80;;;21.60;99.90;;;;;;5039954;28;20491;-36
2022/10/24 10:26:06;;;;;;;5.20;1.60;;;20.90;99.90;;;;;;5039830;28;20564;-36
2022/10/24 10:28:36;;;;;;;2.17;1.10;;;20.60;99.90;;;;;;5045315;28;20454;-36
2022/10/24 10:31:03;;;;;;;6.47;1.30;;;20.60;99.90;;;;;;5038984;28;20971;-35
2022/10/24 10:33:36;;;;;;;2.67;1.20;;;20.30;99.90;;;;;;5038542;28;20536;-43
2022/10/24 10:36:09;;;;;;;4.40;1.60;;;20.30;99.90;;;;;;5036607;28;20465;-36
2022/10/24 10:38:52;;;;;;;6.20;1.90;;;20.40;99.90;;;;;;5031195;28;20537;-37
2022/10/24 10:41:30;;;;;;;6.10;3.27;;;20.50;99.90;;;;;;5046607;28;21073;-39
2022/10/24 10:44:10;;;;;;;5.43;1.67;;;20.20;99.90;;;;;;5046736;28;20454;-38
2022/10/24 10:46:44;;;;;;;3.60;1.20;;;20.30;99.90;;;;;;5040437;28;20523;-38
2022/10/24 10:49:22;;;;;;;8.40;1.90;;;20.50;99.90;;;;;;5040059;28;20467;-42
2022/10/24 10:51:56;;;;;;;6.82;1.80;;;20.00;99.90;;;;;;5038389;28;20566;-40
2022/10/24 10:54:38;;;;;;;4.53;1.70;;;20.00;99.90;;;;;;5042614;28;20191;-47
2022/10/24 10:57:10;;;;;;;6.85;1.70;;;19.90;99.90;;;;;;5050343;28;20195;-39
2022/10/24 10:59:43;;;;;;;4.80;1.70;;;20.00;99.90;;;;;;5042644;28;20187;-39
2022/10/24 11:02:28;;;;;;;6.18;1.88;;;20.10;99.90;;;;;;5040095;28;20453;-38
2022/10/24 11:05:04;;;;;;;2.75;1.88;;;20.00;99.90;;;;;;5031467;28;20230;-55
2022/10/24 11:07:43;;;;;;;3.00;1.33;;;20.60;99.90;;;;;;5049012;28;20186;-56
2022/10/24 11:10:13;;;;;;;5.33;1.43;;;21.50;99.90;;;;;;5040540;28;20458;-56
2022/10/24 11:12:43;;;;;;;3.30;1.43;;;21.80;99.90;;;;;;5040655;28;20467;-60
2022/10/24 11:15:17;;;;;;;4.03;1.40;;;22.00;99.90;;;;;;5043069;28;20466;-60
2022/10/24 11:17:52;;;;;;;3.50;1.50;;;22.10;99.90;;;;;;5044275;28;20465;-56
2022/10/24 11:20:26;;;;;;;2.53;1.23;;;22.20;99.90;;;;;;5041968;28;20500;-58
2022/10/24 11:22:58;;;;;;;1.40;1.30;;;22.20;99.90;;;;;;5046804;28;20457;-56
2022/10/24 11:25:30;;;;;;;5.83;1.20;;;22.30;99.90;;;;;;5044540;28;20470;-53
2022/10/24 11:28:02;;;;;;;4.13;1.20;;;22.30;99.90;;;;;;5040748;28;20811;-57
2022/10/24 11:30:40;;;;;;;2.87;1.50;;;22.30;99.90;;;;;;5042875;28;20457;-59
2022/10/24 11:33:15;;;;;;;2.20;1.10;;;22.40;99.90;;;;;;5043820;28;20512;-50
2022/10/24 11:35:53;;;;;;;1.47;0.90;;;22.40;99.90;;;;;;5036077;28;20847;-59
2022/10/24 11:38:24;;;;;;;4.73;1.33;;;22.40;99.90;;;;;;5034568;28;20462;-51
2022/10/24 11:40:55;;;;;;;4.20;1.50;;;22.40;99.90;;;;;;5042832;28;20492;-52
2022/10/24 11:43:26;;;;;;;1.50;1.20;;;22.40;99.90;;;;;;5042890;28;20442;-50
2022/10/24 11:45:59;;;;;;;3.80;1.10;;;22.50;99.90;;;;;;5037896;28;22261;-51
2022/10/24 11:48:35;;;;;;;1.77;0.93;;;22.50;99.90;;;;;;5042137;28;20454;-51
2022/10/24 11:51:09;;;;;;;2.07;1.30;;;22.50;99.90;;;;;;5043922;28;20460;-54
2022/10/24 11:53:53;;;;;;;2.03;0.93;;;22.50;99.90;;;;;;5035312;28;20454;-55
2022/10/24 11:56:29;;;;;;;2.63;1.00;;;22.50;99.90;;;;;;5039245;28;20474;-57
2022/10/24 11:58:59;;;;;;;3.07;1.40;;;22.50;99.90;;;;;;5043455;28;20464;-59
2022/10/24 12:02:02;;;;;;;3.00;1.30;;;22.60;99.90;;;;;;5040761;28;20466;-57
2022/10/24 12:05:10;;;;;;;2.70;1.40;;;22.70;99.90;;;;;;4990161;28;20954;-58
2022/10/24 12:08:10;;;;;;;3.00;0.93;;;22.70;99.90;;;;;;4979369;28;20472;-62
2022/10/24 12:11:01;;;;;;;1.63;1.20;;;22.80;99.90;;;;;;5030546;28;20458;-57
2022/10/24 12:13:52;;;;;;;2.30;1.30;;;22.90;99.90;;;;;;5040906;28;20452;-52
2022/10/24 12:16:33;;;;;;;2.27;1.10;;;22.90;99.90;;;;;;5047852;28;20867;-59
2022/10/24 12:19:04;;;;;;;1.60;1.00;;;22.90;99.90;;;;;;5029400;28;20949;-57
2022/10/24 12:21:38;;;;;;;2.57;1.60;;;23.00;99.90;;;;;;5044565;28;20488;-59
2022/10/24 12:24:06;;;;;;;1.50;1.07;;;23.00;99.90;;;;;;5035433;28;20462;-54
2022/10/24 12:26:35;;;;;;;1.80;1.10;;;23.00;99.90;;;;;;5047813;28;20488;-59
2022/10/24 12:29:05;;;;;;;1.10;0.83;;;23.10;99.90;;;;;;5043265;28;20470;-57
2022/10/24 12:31:33;;;;;;;1.37;1.07;;;23.10;99.90;;;;;;5040731;28;20461;-62
2022/10/24 12:34:40;;;;;;;1.47;1.07;;;23.10;99.90;;;;;;5045669;28;20466;-51
2022/10/24 12:37:11;;;;;;;1.53;1.17;;;23.10;99.90;;;;;;5044315;28;20572;-65
2022/10/24 12:39:40;;;;;;;1.33;0.90;;;23.00;99.90;;;;;;5045876;28;20450;-61
2022/10/24 12:42:15;;;;;;;2.13;1.10;;;23.00;99.90;;;;;;5044261;28;20477;-53
2022/10/24 12:44:44;;;;;;;1.57;1.00;;;23.00;99.90;;;;;;5042422;28;20991;-58
2022/10/24 12:47:38;;;;;;;1.83;1.10;;;23.00;99.90;;;;;;5048692;28;20488;-52
2022/10/24 12:50:42;;;;;;;1.87;1.27;;;23.10;99.90;;;;;;5040514;28;20451;-66
2022/10/24 12:53:58;;;;;;;1.50;1.20;;;23.00;99.90;;;;;;5045419;28;21006;-57
2022/10/24 12:56:25;;;;;;;4.40;0.80;;;23.10;99.90;;;;;;5033101;28;20462;-59
2022/10/24 12:58:59;;;;;;;1.40;1.10;;;23.10;99.90;;;;;;5051330;28;20793;-62
2022/10/24 13:01:31;;;;;;;1.37;0.90;;;23.10;99.90;;;;;;5052493;28;20520;-60
2022/10/24 13:04:36;;;;;;;1.87;1.03;;;23.10;99.90;;;;;;5045982;28;20454;-55
2022/10/24 13:07:14;;;;;;;2.07;0.90;;;23.10;99.90;;;;;;5052273;28;21110;-57